sensor_id;sensor_type;location;lat;lon;timestamp;P1;durP1;ratioP1;P2;durP2;ratioP2
82744;SDS011;72484;50.004;14.356;2024-02-15T00:02:10;10.40;;;4.50;;
82744;SDS011;72484;50.004;14.356;2024-02-15T00:05:48;9.90;;;4.60;;
82744;SDS011;72484;50.004;14.356;2024-02-15T00:09:25;10.00;;;4.80;;
82744;SDS011;72484;50.004;14.356;2024-02-15T00:13:03;8.90;;;4.40;;
82744;SDS011;72484;50.004;14.356;2024-02-15T00:16:23;11.00;;;4.50;;
82744;SDS011;72484;50.004;14.356;2024-02-15T00:20:40;10.00;;;3.90;;
82744;SDS011;72484;50.004;14.356;2024-02-15T00:24:18;9.80;;;4.50;;
82744;SDS011;72484;50.004;14.356;2024-02-15T00:27:56;10.60;;;4.60;;
82744;SDS011;72484;50.004;14.356;2024-02-15T00:31:33;11.00;;;4.70;;
82744;SDS011;72484;50.004;14.356;2024-02-15T00:35:11;11.20;;;5.30;;
82744;SDS011;72484;50.004;14.356;2024-02-15T00:38:31;11.10;;;4.80;;
82744;SDS011;72484;50.004;14.356;2024-02-15T00:42:48;10.80;;;5.10;;
82744;SDS011;72484;50.004;14.356;2024-02-15T00:46:08;12.40;;;5.30;;
82744;SDS011;72484;50.004;14.356;2024-02-15T00:50:23;12.90;;;6.30;;
82744;SDS011;72484;50.004;14.356;2024-02-15T00:54:02;12.40;;;5.50;;
82744;SDS011;72484;50.004;14.356;2024-02-15T00:57:21;12.20;;;5.20;;
82744;SDS011;72484;50.004;14.356;2024-02-15T01:01:19;11.10;;;4.80;;
82744;SDS011;72484;50.004;14.356;2024-02-15T01:05:18;8.90;;;3.80;;
82744;SDS011;72484;50.004;14.356;2024-02-15T01:09:35;8.50;;;3.60;;
82744;SDS011;72484;50.004;14.356;2024-02-15T01:12:54;10.70;;;3.90;;
82744;SDS011;72484;50.004;14.356;2024-02-15T01:16:53;9.70;;;3.60;;
82744;SDS011;72484;50.004;14.356;2024-02-15T01:20:51;10.40;;;3.70;;
82744;SDS011;72484;50.004;14.356;2024-02-15T01:24:49;9.60;;;3.60;;
82744;SDS011;72484;50.004;14.356;2024-02-15T01:29:05;9.80;;;3.60;;
82744;SDS011;72484;50.004;14.356;2024-02-15T01:32:25;8.70;;;3.50;;
82744;SDS011;72484;50.004;14.356;2024-02-15T01:36:23;8.20;;;3.40;;
82744;SDS011;72484;50.004;14.356;2024-02-15T01:40:39;10.50;;;3.50;;
82744;SDS011;72484;50.004;14.356;2024-02-15T01:44:16;9.60;;;3.70;;
82744;SDS011;72484;50.004;14.356;2024-02-15T01:47:54;8.60;;;3.40;;
82744;SDS011;72484;50.004;14.356;2024-02-15T01:51:32;10.70;;;3.70;;
82744;SDS011;72484;50.004;14.356;2024-02-15T01:55:10;8.60;;;3.50;;
82744;SDS011;72484;50.004;14.356;2024-02-15T01:58:48;10.00;;;3.30;;
82744;SDS011;72484;50.004;14.356;2024-02-15T02:02:25;8.90;;;3.30;;
82744;SDS011;72484;50.004;14.356;2024-02-15T02:05:45;8.70;;;3.50;;
82744;SDS011;72484;50.004;14.356;2024-02-15T02:10:06;9.80;;;3.70;;
82744;SDS011;72484;50.004;14.356;2024-02-15T02:13:25;9.30;;;3.40;;
82744;SDS011;72484;50.004;14.356;2024-02-15T02:17:41;9.40;;;3.40;;
82744;SDS011;72484;50.004;14.356;2024-02-15T02:21:01;7.70;;;3.20;;
82744;SDS011;72484;50.004;14.356;2024-02-15T02:25:18;7.20;;;3.10;;
82744;SDS011;72484;50.004;14.356;2024-02-15T02:28:38;8.20;;;3.20;;
82744;SDS011;72484;50.004;14.356;2024-02-15T02:32:54;8.60;;;3.40;;
82744;SDS011;72484;50.004;14.356;2024-02-15T02:36:14;9.20;;;3.60;;
82744;SDS011;72484;50.004;14.356;2024-02-15T02:40:29;8.80;;;3.40;;
82744;SDS011;72484;50.004;14.356;2024-02-15T02:44:07;10.20;;;4.10;;
82744;SDS011;72484;50.004;14.356;2024-02-15T02:47:45;9.20;;;3.60;;
82744;SDS011;72484;50.004;14.356;2024-02-15T02:51:23;8.90;;;3.90;;
82744;SDS011;72484;50.004;14.356;2024-02-15T02:54:43;17.70;;;7.60;;
82744;SDS011;72484;50.004;14.356;2024-02-15T02:58:59;9.50;;;4.20;;
82744;SDS011;72484;50.004;14.356;2024-02-15T03:02:37;11.00;;;4.70;;
82744;SDS011;72484;50.004;14.356;2024-02-15T03:05:56;8.30;;;4.20;;
82744;SDS011;72484;50.004;14.356;2024-02-15T03:09:54;10.30;;;5.00;;
82744;SDS011;72484;50.004;14.356;2024-02-15T03:13:52;9.70;;;4.60;;
82744;SDS011;72484;50.004;14.356;2024-02-15T03:18:11;11.80;;;6.00;;
82744;SDS011;72484;50.004;14.356;2024-02-15T03:21:31;16.60;;;8.70;;
82744;SDS011;72484;50.004;14.356;2024-02-15T03:25:29;17.80;;;11.60;;
82744;SDS011;72484;50.004;14.356;2024-02-15T03:29:47;12.70;;;7.10;;
82744;SDS011;72484;50.004;14.356;2024-02-15T03:33:07;11.70;;;6.70;;
82744;SDS011;72484;50.004;14.356;2024-02-15T03:37:23;11.30;;;5.80;;
82744;SDS011;72484;50.004;14.356;2024-02-15T03:41:01;10.20;;;4.70;;
82744;SDS011;72484;50.004;14.356;2024-02-15T03:44:21;8.70;;;4.00;;
82744;SDS011;72484;50.004;14.356;2024-02-15T03:48:38;9.20;;;4.40;;
82744;SDS011;72484;50.004;14.356;2024-02-15T03:51:58;10.40;;;4.80;;
82744;SDS011;72484;50.004;14.356;2024-02-15T03:56:14;9.60;;;4.80;;
82744;SDS011;72484;50.004;14.356;2024-02-15T03:59:34;9.60;;;5.20;;
82744;SDS011;72484;50.004;14.356;2024-02-15T04:03:51;10.50;;;4.70;;
82744;SDS011;72484;50.004;14.356;2024-02-15T04:07:28;9.40;;;4.50;;
82744;SDS011;72484;50.004;14.356;2024-02-15T04:10:48;9.30;;;4.60;;
82744;SDS011;72484;50.004;14.356;2024-02-15T04:14:46;9.30;;;4.20;;
82744;SDS011;72484;50.004;14.356;2024-02-15T04:19:03;9.50;;;4.50;;
82744;SDS011;72484;50.004;14.356;2024-02-15T04:22:23;10.70;;;4.70;;
82744;SDS011;72484;50.004;14.356;2024-02-15T04:26:39;9.90;;;4.60;;
82744;SDS011;72484;50.004;14.356;2024-02-15T04:29:59;9.90;;;4.80;;
82744;SDS011;72484;50.004;14.356;2024-02-15T04:34:17;13.00;;;7.30;;
82744;SDS011;72484;50.004;14.356;2024-02-15T04:37:37;10.40;;;5.10;;
82744;SDS011;72484;50.004;14.356;2024-02-15T04:41:53;10.90;;;4.90;;
82744;SDS011;72484;50.004;14.356;2024-02-15T04:45:13;8.70;;;4.50;;
82744;SDS011;72484;50.004;14.356;2024-02-15T04:49:28;10.40;;;4.70;;
82744;SDS011;72484;50.004;14.356;2024-02-15T04:52:48;10.40;;;4.40;;
82744;SDS011;72484;50.004;14.356;2024-02-15T04:56:46;11.10;;;4.90;;
82744;SDS011;72484;50.004;14.356;2024-02-15T05:00:48;10.00;;;4.80;;
82744;SDS011;72484;50.004;14.356;2024-02-15T05:04:48;10.00;;;5.30;;
82744;SDS011;72484;50.004;14.356;2024-02-15T05:08:52;11.00;;;5.30;;
82744;SDS011;72484;50.004;14.356;2024-02-15T05:12:51;10.80;;;5.00;;
82744;SDS011;72484;50.004;14.356;2024-02-15T05:16:51;10.00;;;5.00;;
82744;SDS011;72484;50.004;14.356;2024-02-15T05:21:06;11.00;;;5.10;;
82744;SDS011;72484;50.004;14.356;2024-02-15T05:24:44;10.30;;;5.30;;
82744;SDS011;72484;50.004;14.356;2024-02-15T05:28:04;9.90;;;5.10;;
82744;SDS011;72484;50.004;14.356;2024-02-15T05:32:04;10.60;;;5.00;;
82744;SDS011;72484;50.004;14.356;2024-02-15T05:36:22;10.30;;;5.50;;
82744;SDS011;72484;50.004;14.356;2024-02-15T05:40:00;10.40;;;5.60;;
82744;SDS011;72484;50.004;14.356;2024-02-15T05:43:38;9.40;;;5.20;;
82744;SDS011;72484;50.004;14.356;2024-02-15T05:46:57;10.80;;;5.30;;
82744;SDS011;72484;50.004;14.356;2024-02-15T05:51:13;13.10;;;5.90;;
82744;SDS011;72484;50.004;14.356;2024-02-15T05:54:51;11.20;;;5.40;;
82744;SDS011;72484;50.004;14.356;2024-02-15T05:58:29;11.00;;;5.70;;
82744;SDS011;72484;50.004;14.356;2024-02-15T06:02:06;9.80;;;5.50;;
82744;SDS011;72484;50.004;14.356;2024-02-15T06:05:26;10.00;;;5.70;;
82744;SDS011;72484;50.004;14.356;2024-02-15T06:09:24;10.30;;;5.90;;
82744;SDS011;72484;50.004;14.356;2024-02-15T06:13:43;11.10;;;6.00;;
82744;SDS011;72484;50.004;14.356;2024-02-15T06:17:21;9.70;;;5.80;;
82744;SDS011;72484;50.004;14.356;2024-02-15T06:20:59;10.20;;;6.00;;
82744;SDS011;72484;50.004;14.356;2024-02-15T06:24:36;9.80;;;5.40;;
82744;SDS011;72484;50.004;14.356;2024-02-15T06:28:14;10.70;;;5.90;;
82744;SDS011;72484;50.004;14.356;2024-02-15T06:31:52;11.50;;;6.00;;
82744;SDS011;72484;50.004;14.356;2024-02-15T06:35:30;10.30;;;5.30;;
82744;SDS011;72484;50.004;14.356;2024-02-15T06:39:08;9.00;;;5.00;;
82744;SDS011;72484;50.004;14.356;2024-02-15T06:42:28;9.80;;;4.90;;
82744;SDS011;72484;50.004;14.356;2024-02-15T06:46:46;14.80;;;5.10;;
82744;SDS011;72484;50.004;14.356;2024-02-15T06:50:07;11.20;;;5.30;;
82744;SDS011;72484;50.004;14.356;2024-02-15T06:54:24;11.90;;;5.10;;
82744;SDS011;72484;50.004;14.356;2024-02-15T06:57:44;11.90;;;5.80;;
82744;SDS011;72484;50.004;14.356;2024-02-15T07:02:01;10.60;;;5.70;;
82744;SDS011;72484;50.004;14.356;2024-02-15T07:05:20;10.70;;;6.20;;
82744;SDS011;72484;50.004;14.356;2024-02-15T07:09:37;11.80;;;6.50;;
82744;SDS011;72484;50.004;14.356;2024-02-15T07:12:57;12.20;;;6.30;;
82744;SDS011;72484;50.004;14.356;2024-02-15T07:16:55;13.40;;;5.90;;
82744;SDS011;72484;50.004;14.356;2024-02-15T07:21:11;12.10;;;6.20;;
82744;SDS011;72484;50.004;14.356;2024-02-15T07:24:49;10.60;;;5.40;;
82744;SDS011;72484;50.004;14.356;2024-02-15T07:28:12;12.10;;;5.50;;
82744;SDS011;72484;50.004;14.356;2024-02-15T07:32:28;11.50;;;5.40;;
82744;SDS011;72484;50.004;14.356;2024-02-15T07:36:06;9.80;;;4.80;;
82744;SDS011;72484;50.004;14.356;2024-02-15T07:39:43;9.10;;;4.70;;
82744;SDS011;72484;50.004;14.356;2024-02-15T07:43:21;9.10;;;4.90;;
82744;SDS011;72484;50.004;14.356;2024-02-15T07:46:41;12.00;;;5.00;;
82744;SDS011;72484;50.004;14.356;2024-02-15T07:50:57;9.30;;;4.60;;
82744;SDS011;72484;50.004;14.356;2024-02-15T07:54:34;8.80;;;4.20;;
82744;SDS011;72484;50.004;14.356;2024-02-15T07:57:54;8.60;;;4.40;;
82744;SDS011;72484;50.004;14.356;2024-02-15T08:01:53;9.30;;;4.20;;
82744;SDS011;72484;50.004;14.356;2024-02-15T08:06:09;10.20;;;4.50;;
82744;SDS011;72484;50.004;14.356;2024-02-15T08:09:29;13.90;;;4.40;;
82744;SDS011;72484;50.004;14.356;2024-02-15T08:13:45;12.70;;;4.80;;
82744;SDS011;72484;50.004;14.356;2024-02-15T08:17:22;10.30;;;5.60;;
82744;SDS011;72484;50.004;14.356;2024-02-15T08:20:42;10.40;;;4.40;;
82744;SDS011;72484;50.004;14.356;2024-02-15T08:24:59;19.70;;;5.80;;
82744;SDS011;72484;50.004;14.356;2024-02-15T08:28:36;13.00;;;4.90;;
82744;SDS011;72484;50.004;14.356;2024-02-15T08:32:14;10.20;;;4.40;;
82744;SDS011;72484;50.004;14.356;2024-02-15T08:35:52;16.30;;;4.80;;
82744;SDS011;72484;50.004;14.356;2024-02-15T08:39:30;14.60;;;5.10;;
82744;SDS011;72484;50.004;14.356;2024-02-15T08:43:07;8.70;;;4.20;;
82744;SDS011;72484;50.004;14.356;2024-02-15T08:46:45;13.60;;;4.70;;
82744;SDS011;72484;50.004;14.356;2024-02-15T08:50:06;13.40;;;4.90;;
82744;SDS011;72484;50.004;14.356;2024-02-15T08:54:05;9.60;;;4.80;;
82744;SDS011;72484;50.004;14.356;2024-02-15T08:58:22;8.80;;;4.50;;
82744;SDS011;72484;50.004;14.356;2024-02-15T09:01:41;9.00;;;4.70;;
82744;SDS011;72484;50.004;14.356;2024-02-15T09:05:59;9.00;;;4.50;;
82744;SDS011;72484;50.004;14.356;2024-02-15T09:09:19;9.90;;;4.70;;
82744;SDS011;72484;50.004;14.356;2024-02-15T09:13:17;10.50;;;5.30;;
82744;SDS011;72484;50.004;14.356;2024-02-15T09:17:15;11.20;;;5.00;;
82744;SDS011;72484;50.004;14.356;2024-02-15T09:21:31;9.50;;;4.70;;
82744;SDS011;72484;50.004;14.356;2024-02-15T09:25:09;9.90;;;5.20;;
82744;SDS011;72484;50.004;14.356;2024-02-15T09:28:29;10.90;;;5.10;;
82744;SDS011;72484;50.004;14.356;2024-02-15T09:32:45;14.50;;;5.20;;
82744;SDS011;72484;50.004;14.356;2024-02-15T09:36:05;11.00;;;4.80;;
82744;SDS011;72484;50.004;14.356;2024-02-15T09:40:21;9.10;;;4.00;;
82744;SDS011;72484;50.004;14.356;2024-02-15T09:43:59;9.80;;;4.40;;
82744;SDS011;72484;50.004;14.356;2024-02-15T09:47:19;13.20;;;4.20;;
82744;SDS011;72484;50.004;14.356;2024-02-15T09:51:37;9.30;;;4.00;;
82744;SDS011;72484;50.004;14.356;2024-02-15T09:55:14;9.00;;;3.70;;
82744;SDS011;72484;50.004;14.356;2024-02-15T09:58:35;10.10;;;4.00;;
82744;SDS011;72484;50.004;14.356;2024-02-15T10:02:34;8.10;;;3.60;;
82744;SDS011;72484;50.004;14.356;2024-02-15T10:06:52;8.50;;;3.30;;
82744;SDS011;72484;50.004;14.356;2024-02-15T10:10:16;6.70;;;2.90;;
82744;SDS011;72484;50.004;14.356;2024-02-15T10:14:33;8.10;;;2.60;;
82744;SDS011;72484;50.004;14.356;2024-02-15T10:18:11;6.20;;;2.30;;
82744;SDS011;72484;50.004;14.356;2024-02-15T10:21:31;7.00;;;2.40;;
82744;SDS011;72484;50.004;14.356;2024-02-15T10:25:48;8.90;;;2.60;;
82744;SDS011;72484;50.004;14.356;2024-02-15T10:29:09;6.10;;;2.40;;
82744;SDS011;72484;50.004;14.356;2024-02-15T10:33:28;6.70;;;1.90;;
82744;SDS011;72484;50.004;14.356;2024-02-15T10:37:10;8.30;;;2.00;;
82744;SDS011;72484;50.004;14.356;2024-02-15T10:40:25;8.60;;;2.00;;
82744;SDS011;72484;50.004;14.356;2024-02-15T10:44:23;8.10;;;2.40;;
82744;SDS011;72484;50.004;14.356;2024-02-15T10:48:21;9.30;;;2.10;;
82744;SDS011;72484;50.004;14.356;2024-02-15T10:52:20;5.00;;;1.30;;
82744;SDS011;72484;50.004;14.356;2024-02-15T10:56:21;7.90;;;1.70;;
82744;SDS011;72484;50.004;14.356;2024-02-15T11:00:48;6.60;;;1.70;;
82744;SDS011;72484;50.004;14.356;2024-02-15T11:04:08;7.20;;;1.90;;
82744;SDS011;72484;50.004;14.356;2024-02-15T11:08:28;9.30;;;1.40;;
82744;SDS011;72484;50.004;14.356;2024-02-15T11:11:48;7.20;;;1.30;;
82744;SDS011;72484;50.004;14.356;2024-02-15T11:16:06;5.70;;;1.40;;
82744;SDS011;72484;50.004;14.356;2024-02-15T11:19:44;5.90;;;1.30;;
82744;SDS011;72484;50.004;14.356;2024-02-15T11:23:25;5.80;;;1.50;;
82744;SDS011;72484;50.004;14.356;2024-02-15T11:26:45;7.60;;;2.50;;
82744;SDS011;72484;50.004;14.356;2024-02-15T11:31:01;6.90;;;1.40;;
82744;SDS011;72484;50.004;14.356;2024-02-15T11:38:43;7.50;;;2.30;;
82744;SDS011;72484;50.004;14.356;2024-02-15T11:42:41;7.50;;;2.30;;
82744;SDS011;72484;50.004;14.356;2024-02-15T11:46:57;6.00;;;1.40;;
82744;SDS011;72484;50.004;14.356;2024-02-15T11:50:35;6.60;;;1.70;;
82744;SDS011;72484;50.004;14.356;2024-02-15T11:54:13;6.80;;;1.60;;
82744;SDS011;72484;50.004;14.356;2024-02-15T11:57:57;6.70;;;1.70;;
82744;SDS011;72484;50.004;14.356;2024-02-15T12:01:28;6.90;;;1.70;;
82744;SDS011;72484;50.004;14.356;2024-02-15T12:05:06;7.00;;;2.00;;
82744;SDS011;72484;50.004;14.356;2024-02-15T12:08:44;9.90;;;2.20;;
82744;SDS011;72484;50.004;14.356;2024-02-15T12:12:21;9.90;;;3.60;;
82744;SDS011;72484;50.004;14.356;2024-02-15T12:15:41;6.40;;;1.80;;
82744;SDS011;72484;50.004;14.356;2024-02-15T12:20:32;8.90;;;2.20;;
82744;SDS011;72484;50.004;14.356;2024-02-15T12:24:07;11.00;;;2.60;;
82744;SDS011;72484;50.004;14.356;2024-02-15T12:27:44;6.40;;;1.80;;
82744;SDS011;72484;50.004;14.356;2024-02-15T12:31:22;6.70;;;1.80;;
82744;SDS011;72484;50.004;14.356;2024-02-15T12:35:10;9.00;;;2.40;;
82744;SDS011;72484;50.004;14.356;2024-02-15T12:38:38;8.20;;;2.70;;
82744;SDS011;72484;50.004;14.356;2024-02-15T12:42:15;8.90;;;2.40;;
82744;SDS011;72484;50.004;14.356;2024-02-15T12:45:36;10.50;;;2.20;;
82744;SDS011;72484;50.004;14.356;2024-02-15T12:49:54;7.60;;;1.90;;
82744;SDS011;72484;50.004;14.356;2024-02-15T12:53:32;8.10;;;2.20;;
82744;SDS011;72484;50.004;14.356;2024-02-15T12:57:09;6.60;;;1.80;;
82744;SDS011;72484;50.004;14.356;2024-02-15T13:00:47;7.40;;;2.20;;
82744;SDS011;72484;50.004;14.356;2024-02-15T13:04:07;12.70;;;2.30;;
82744;SDS011;72484;50.004;14.356;2024-02-15T13:08:23;9.50;;;3.00;;
82744;SDS011;72484;50.004;14.356;2024-02-15T13:12:01;8.20;;;2.50;;
82744;SDS011;72484;50.004;14.356;2024-02-15T13:15:21;7.30;;;1.80;;
82744;SDS011;72484;50.004;14.356;2024-02-15T13:19:45;7.80;;;2.00;;
82744;SDS011;72484;50.004;14.356;2024-02-15T13:23:18;12.60;;;2.30;;
82744;SDS011;72484;50.004;14.356;2024-02-15T13:26:56;8.50;;;1.70;;
82744;SDS011;72484;50.004;14.356;2024-02-15T13:30:33;9.00;;;2.20;;
82744;SDS011;72484;50.004;14.356;2024-02-15T13:33:53;10.50;;;1.80;;
82744;SDS011;72484;50.004;14.356;2024-02-15T13:38:09;7.70;;;1.90;;
82744;SDS011;72484;50.004;14.356;2024-02-15T13:41:29;7.00;;;1.70;;
82744;SDS011;72484;50.004;14.356;2024-02-15T13:45:28;10.40;;;2.80;;
82744;SDS011;72484;50.004;14.356;2024-02-15T13:49:28;9.70;;;2.10;;
82744;SDS011;72484;50.004;14.356;2024-02-15T13:53:26;8.90;;;2.30;;
82744;SDS011;72484;50.004;14.356;2024-02-15T13:57:43;12.80;;;2.20;;
82744;SDS011;72484;50.004;14.356;2024-02-15T14:01:20;8.50;;;1.70;;
82744;SDS011;72484;50.004;14.356;2024-02-15T14:04:58;8.80;;;1.90;;
82744;SDS011;72484;50.004;14.356;2024-02-15T14:08:36;6.40;;;1.20;;
82744;SDS011;72484;50.004;14.356;2024-02-15T14:11:55;7.00;;;1.50;;
82744;SDS011;72484;50.004;14.356;2024-02-15T14:15:54;6.60;;;1.50;;
82744;SDS011;72484;50.004;14.356;2024-02-15T14:20:11;10.80;;;2.00;;
82744;SDS011;72484;50.004;14.356;2024-02-15T14:23:30;6.50;;;1.20;;
82744;SDS011;72484;50.004;14.356;2024-02-15T14:27:46;6.10;;;1.00;;
82744;SDS011;72484;50.004;14.356;2024-02-15T14:31:24;7.90;;;1.50;;
82744;SDS011;72484;50.004;14.356;2024-02-15T14:35:02;8.60;;;1.60;;
82744;SDS011;72484;50.004;14.356;2024-02-15T14:38:22;9.10;;;1.10;;
82744;SDS011;72484;50.004;14.356;2024-02-15T14:42:38;16.10;;;1.50;;
82744;SDS011;72484;50.004;14.356;2024-02-15T14:45:57;7.60;;;1.10;;
82744;SDS011;72484;50.004;14.356;2024-02-15T14:50:18;11.10;;;1.60;;
82744;SDS011;72484;50.004;14.356;2024-02-15T14:53:55;9.30;;;1.40;;
82744;SDS011;72484;50.004;14.356;2024-02-15T14:57:15;10.20;;;1.40;;
82744;SDS011;72484;50.004;14.356;2024-02-15T15:01:32;9.50;;;1.60;;
82744;SDS011;72484;50.004;14.356;2024-02-15T15:05:09;8.40;;;1.70;;
82744;SDS011;72484;50.004;14.356;2024-02-15T15:08:47;10.10;;;1.60;;
82744;SDS011;72484;50.004;14.356;2024-02-15T15:12:07;7.00;;;1.30;;
82744;SDS011;72484;50.004;14.356;2024-02-15T15:16:40;12.20;;;1.50;;
82744;SDS011;72484;50.004;14.356;2024-02-15T15:20:00;9.00;;;1.80;;
82744;SDS011;72484;50.004;14.356;2024-02-15T15:24:21;8.30;;;1.70;;
82744;SDS011;72484;50.004;14.356;2024-02-15T15:27:59;9.00;;;1.70;;
82744;SDS011;72484;50.004;14.356;2024-02-15T15:31:19;9.70;;;1.80;;
82744;SDS011;72484;50.004;14.356;2024-02-15T15:35:35;14.10;;;2.00;;
82744;SDS011;72484;50.004;14.356;2024-02-15T15:38:55;11.90;;;2.00;;
82744;SDS011;72484;50.004;14.356;2024-02-15T15:43:11;12.10;;;2.10;;
82744;SDS011;72484;50.004;14.356;2024-02-15T15:46:50;14.10;;;2.20;;
82744;SDS011;72484;50.004;14.356;2024-02-15T15:50:09;20.00;;;3.30;;
82744;SDS011;72484;50.004;14.356;2024-02-15T15:54:25;16.90;;;3.50;;
82744;SDS011;72484;50.004;14.356;2024-02-15T15:58:03;11.30;;;3.40;;
82744;SDS011;72484;50.004;14.356;2024-02-15T16:01:47;14.60;;;2.90;;
82744;SDS011;72484;50.004;14.356;2024-02-15T16:05:00;13.30;;;2.60;;
82744;SDS011;72484;50.004;14.356;2024-02-15T16:09:16;13.30;;;2.40;;
82744;SDS011;72484;50.004;14.356;2024-02-15T16:12:36;11.20;;;2.50;;
82744;SDS011;72484;50.004;14.356;2024-02-15T16:16:52;10.50;;;2.80;;
82744;SDS011;72484;50.004;14.356;2024-02-15T16:20:30;11.50;;;2.70;;
82744;SDS011;72484;50.004;14.356;2024-02-15T16:24:08;8.70;;;2.10;;
82744;SDS011;72484;50.004;14.356;2024-02-15T16:27:27;8.50;;;2.00;;
82744;SDS011;72484;50.004;14.356;2024-02-15T16:31:25;11.20;;;2.10;;
82744;SDS011;72484;50.004;14.356;2024-02-15T16:35:24;12.30;;;2.00;;
82744;SDS011;72484;50.004;14.356;2024-02-15T16:39:22;9.00;;;2.40;;
82744;SDS011;72484;50.004;14.356;2024-02-15T16:43:38;8.50;;;2.00;;
82744;SDS011;72484;50.004;14.356;2024-02-15T16:46:58;7.70;;;2.70;;
82744;SDS011;72484;50.004;14.356;2024-02-15T16:51:14;14.20;;;7.00;;
82744;SDS011;72484;50.004;14.356;2024-02-15T16:54:52;47.10;;;24.10;;
82744;SDS011;72484;50.004;14.356;2024-02-15T16:58:29;28.60;;;13.90;;
82744;SDS011;72484;50.004;14.356;2024-02-15T17:01:49;29.10;;;16.40;;
82744;SDS011;72484;50.004;14.356;2024-02-15T17:06:06;23.60;;;13.40;;
82744;SDS011;72484;50.004;14.356;2024-02-15T17:09:26;55.90;;;29.90;;
82744;SDS011;72484;50.004;14.356;2024-02-15T17:13:24;78.30;;;43.50;;
82744;SDS011;72484;50.004;14.356;2024-02-15T17:17:22;64.60;;;39.60;;
82744;SDS011;72484;50.004;14.356;2024-02-15T17:21:20;25.70;;;16.40;;
82744;SDS011;72484;50.004;14.356;2024-02-15T17:25:19;17.20;;;10.10;;
82744;SDS011;72484;50.004;14.356;2024-02-15T17:29:35;18.00;;;6.80;;
82744;SDS011;72484;50.004;14.356;2024-02-15T17:32:55;13.60;;;6.90;;
82744;SDS011;72484;50.004;14.356;2024-02-15T17:37:11;10.60;;;5.60;;
82744;SDS011;72484;50.004;14.356;2024-02-15T17:40:48;10.80;;;5.40;;
82744;SDS011;72484;50.004;14.356;2024-02-15T17:44:26;12.30;;;5.90;;
82744;SDS011;72484;50.004;14.356;2024-02-15T17:48:04;11.90;;;6.40;;
82744;SDS011;72484;50.004;14.356;2024-02-15T17:51:41;13.90;;;6.70;;
82744;SDS011;72484;50.004;14.356;2024-02-15T17:55:19;13.30;;;7.30;;
82744;SDS011;72484;50.004;14.356;2024-02-15T17:58:57;13.60;;;7.40;;
82744;SDS011;72484;50.004;14.356;2024-02-15T18:02:35;15.50;;;8.40;;
82744;SDS011;72484;50.004;14.356;2024-02-15T18:06:12;16.80;;;10.30;;
82744;SDS011;72484;50.004;14.356;2024-02-15T18:09:50;15.50;;;9.00;;
82744;SDS011;72484;50.004;14.356;2024-02-15T18:13:28;36.10;;;22.40;;
82744;SDS011;72484;50.004;14.356;2024-02-15T18:17:05;31.80;;;20.20;;
82744;SDS011;72484;50.004;14.356;2024-02-15T18:20:25;19.70;;;12.60;;
82744;SDS011;72484;50.004;14.356;2024-02-15T18:24:42;16.50;;;10.70;;
82744;SDS011;72484;50.004;14.356;2024-02-15T18:28:20;14.80;;;10.20;;
82744;SDS011;72484;50.004;14.356;2024-02-15T18:31:40;17.00;;;10.70;;
82744;SDS011;72484;50.004;14.356;2024-02-15T18:35:56;16.10;;;11.00;;
82744;SDS011;72484;50.004;14.356;2024-02-15T18:39:33;17.10;;;11.30;;
82744;SDS011;72484;50.004;14.356;2024-02-15T18:42:53;17.10;;;10.80;;
82744;SDS011;72484;50.004;14.356;2024-02-15T18:46:52;14.50;;;9.00;;
82744;SDS011;72484;50.004;14.356;2024-02-15T18:51:14;15.40;;;9.30;;
82744;SDS011;72484;50.004;14.356;2024-02-15T18:54:30;16.80;;;9.10;;
82744;SDS011;72484;50.004;14.356;2024-02-15T18:58:48;17.30;;;10.50;;
82744;SDS011;72484;50.004;14.356;2024-02-15T19:02:06;16.80;;;9.30;;
82744;SDS011;72484;50.004;14.356;2024-02-15T19:06:06;15.20;;;9.00;;
82744;SDS011;72484;50.004;14.356;2024-02-15T19:10:24;15.00;;;8.40;;
82744;SDS011;72484;50.004;14.356;2024-02-15T19:14:01;15.10;;;8.50;;
82744;SDS011;72484;50.004;14.356;2024-02-15T19:17:39;15.10;;;9.20;;
82744;SDS011;72484;50.004;14.356;2024-02-15T19:21:16;15.10;;;9.40;;
82744;SDS011;72484;50.004;14.356;2024-02-15T19:24:36;15.50;;;8.40;;
82744;SDS011;72484;50.004;14.356;2024-02-15T19:28:34;15.60;;;8.60;;
82744;SDS011;72484;50.004;14.356;2024-02-15T19:32:50;13.80;;;8.20;;
82744;SDS011;72484;50.004;14.356;2024-02-15T19:36:28;14.00;;;8.30;;
82744;SDS011;72484;50.004;14.356;2024-02-15T19:39:48;14.80;;;8.50;;
82744;SDS011;72484;50.004;14.356;2024-02-15T19:43:47;14.80;;;8.60;;
82744;SDS011;72484;50.004;14.356;2024-02-15T19:47:47;14.90;;;9.10;;
82744;SDS011;72484;50.004;14.356;2024-02-15T19:52:04;15.60;;;9.90;;
82744;SDS011;72484;50.004;14.356;2024-02-15T19:55:42;14.40;;;9.00;;
82744;SDS011;72484;50.004;14.356;2024-02-15T19:59:19;14.50;;;9.10;;
82744;SDS011;72484;50.004;14.356;2024-02-15T20:02:57;15.30;;;9.00;;
82744;SDS011;72484;50.004;14.356;2024-02-15T20:06:17;16.10;;;9.30;;
82744;SDS011;72484;50.004;14.356;2024-02-15T20:10:18;15.80;;;9.60;;
82744;SDS011;72484;50.004;14.356;2024-02-15T20:14:35;16.40;;;10.40;;
82744;SDS011;72484;50.004;14.356;2024-02-15T20:17:55;15.00;;;10.10;;
82744;SDS011;72484;50.004;14.356;2024-02-15T20:21:54;15.80;;;10.30;;
82744;SDS011;72484;50.004;14.356;2024-02-15T20:26:10;15.40;;;9.60;;
82744;SDS011;72484;50.004;14.356;2024-02-15T20:29:30;22.70;;;16.00;;
82744;SDS011;72484;50.004;14.356;2024-02-15T20:33:48;30.70;;;21.80;;
82744;SDS011;72484;50.004;14.356;2024-02-15T20:37:26;18.60;;;12.20;;
82744;SDS011;72484;50.004;14.356;2024-02-15T20:40:46;19.00;;;12.80;;
82744;SDS011;72484;50.004;14.356;2024-02-15T20:44:44;16.80;;;10.40;;
82744;SDS011;72484;50.004;14.356;2024-02-15T20:48:42;15.50;;;9.60;;
82744;SDS011;72484;50.004;14.356;2024-02-15T20:52:41;22.50;;;15.10;;
82744;SDS011;72484;50.004;14.356;2024-02-15T20:56:57;17.20;;;11.20;;
82744;SDS011;72484;50.004;14.356;2024-02-15T21:00:35;17.60;;;11.30;;
82744;SDS011;72484;50.004;14.356;2024-02-15T21:03:54;16.40;;;11.00;;
82744;SDS011;72484;50.004;14.356;2024-02-15T21:07:52;14.40;;;9.60;;
82744;SDS011;72484;50.004;14.356;2024-02-15T21:12:08;14.70;;;9.80;;
82744;SDS011;72484;50.004;14.356;2024-02-15T21:15:46;15.90;;;10.10;;
82744;SDS011;72484;50.004;14.356;2024-02-15T21:19:24;16.10;;;10.50;;
82744;SDS011;72484;50.004;14.356;2024-02-15T21:22:44;14.10;;;9.90;;
82744;SDS011;72484;50.004;14.356;2024-02-15T21:26:44;16.90;;;11.50;;
82744;SDS011;72484;50.004;14.356;2024-02-15T21:31:01;14.70;;;10.50;;
82744;SDS011;72484;50.004;14.356;2024-02-15T21:34:20;15.40;;;10.00;;
82744;SDS011;72484;50.004;14.356;2024-02-15T21:38:21;15.70;;;10.40;;
82744;SDS011;72484;50.004;14.356;2024-02-15T21:42:37;15.80;;;9.90;;
82744;SDS011;72484;50.004;14.356;2024-02-15T21:46:15;14.80;;;10.10;;
82744;SDS011;72484;50.004;14.356;2024-02-15T21:49:35;17.30;;;10.90;;
82744;SDS011;72484;50.004;14.356;2024-02-15T21:53:53;16.10;;;10.90;;
82744;SDS011;72484;50.004;14.356;2024-02-15T21:57:31;14.60;;;10.30;;
82744;SDS011;72484;50.004;14.356;2024-02-15T22:00:51;16.50;;;11.40;;
82744;SDS011;72484;50.004;14.356;2024-02-15T22:04:51;15.80;;;11.40;;
82744;SDS011;72484;50.004;14.356;2024-02-15T22:09:07;17.30;;;11.80;;
82744;SDS011;72484;50.004;14.356;2024-02-15T22:12:45;15.50;;;11.00;;
82744;SDS011;72484;50.004;14.356;2024-02-15T22:16:22;18.70;;;12.00;;